Time;durP1;ratioP1;P1;durP2;ratioP2;P2;SDS_P1;SDS_P2;PMS_P1;PMS_P2;Temp;Humidity;BMP_temperature;BMP_pressure;BME280_temperature;BME280_humidity;BME280_pressure;Samples;Min_cycle;Max_cycle;Signal;HPM_P1;HPM_P2
2023/11/07 00:05:42;;;;;;;62.90;7.88;;;;;;;20.73;100.00;101556.47;21179748;27;20068;-75
2023/11/07 00:16:09;;;;;;;63.42;8.40;;;;;;;20.80;100.00;101558.19;21197983;27;20043;-76
2023/11/07 00:26:33;;;;;;;55.35;7.65;;;;;;;20.67;100.00;101562.81;21150399;27;20043;-76
2023/11/07 00:36:57;;;;;;;67.50;9.35;;;;;;;20.56;100.00;101565.63;21129751;27;20093;-75
2023/11/07 00:47:20;;;;;;;65.03;8.05;;;;;;;20.56;100.00;101568.31;21142814;27;20054;-75
2023/11/07 00:57:44;;;;;;;62.72;7.50;;;;;;;20.59;100.00;101570.06;21172613;27;20059;-76
2023/11/07 01:08:06;;;;;;;64.40;7.30;;;;;;;20.52;100.00;101571.06;21150020;27;20134;-77
2023/11/07 01:18:31;;;;;;;71.45;8.15;;;;;;;20.33;100.00;101559.66;21178729;27;20063;-76
2023/11/07 01:28:54;;;;;;;74.20;9.70;;;;;;;20.27;100.00;101557.03;21163033;27;20056;-75
2023/11/07 01:39:18;;;;;;;72.90;9.52;;;;;;;20.24;100.00;101557.03;21135099;27;20544;-75
2023/11/07 01:49:41;;;;;;;79.32;9.05;;;;;;;20.13;100.00;101564.31;21134500;28;20055;-77
2023/11/07 02:00:11;;;;;;;70.63;8.75;;;;;;;20.02;100.00;101561.72;21211314;27;20457;-75
2023/11/07 02:10:34;;;;;;;64.68;8.20;;;;;;;19.98;100.00;101572.50;21195319;27;20108;-76
2023/11/07 02:20:58;;;;;;;79.88;9.32;;;;;;;19.92;100.00;101572.56;21144969;27;20036;-75
2023/11/07 02:31:23;;;;;;;66.32;8.30;;;;;;;19.87;100.00;101575.31;21144766;27;20069;-76
2023/11/07 02:41:47;;;;;;;63.10;8.45;;;;;;;19.85;100.00;101579.78;21186157;27;20055;-76
2023/11/07 02:52:10;;;;;;;64.30;8.52;;;;;;;19.78;100.00;101570.03;21197313;27;20085;-75
2023/11/07 03:02:35;;;;;;;71.38;7.45;;;;;;;19.66;100.00;101571.03;21163884;28;20113;-76
2023/11/07 03:13:00;;;;;;;62.30;7.90;;;;;;;19.55;100.00;101564.88;21171902;28;20419;-76
2023/11/07 03:23:24;;;;;;;63.35;8.68;;;;;;;19.48;100.00;101573.88;21129143;28;20131;-76
2023/11/07 03:33:48;;;;;;;65.80;9.38;;;;;;;19.40;100.00;101586.38;21175488;28;20063;-75
2023/11/07 03:44:10;;;;;;;66.60;7.63;;;;;;;19.36;100.00;101590.00;21123297;28;1778834;-75
2023/11/07 03:54:34;;;;;;;57.00;7.38;;;;;;;19.39;100.00;101589.97;21153271;27;20559;-76
2023/11/07 04:04:57;;;;;;;62.05;8.75;;;;;;;19.40;100.00;101594.44;21200207;27;20096;-76
2023/11/07 04:15:22;;;;;;;54.72;7.13;;;;;;;19.25;100.00;101594.53;21154671;27;20402;-75
2023/11/07 04:25:46;;;;;;;61.00;7.65;;;;;;;19.11;100.00;101598.19;21170211;27;20047;-76
2023/11/07 04:36:12;;;;;;;71.32;8.57;;;;;;;19.09;100.00;101605.34;21148326;27;20111;-75
2023/11/07 04:46:37;;;;;;;61.25;7.78;;;;;;;19.04;100.00;101608.91;21155219;27;20062;-76
2023/11/07 04:57:01;;;;;;;54.55;7.60;;;;;;;19.01;100.00;101630.38;21188768;27;20782;-75
2023/11/07 05:07:24;;;;;;;58.67;7.22;;;;;;;19.03;100.00;101641.97;21164349;27;20054;-76
2023/11/07 05:17:49;;;;;;;56.45;7.32;;;;;;;19.18;100.00;101652.56;21176948;27;20047;-76
2023/11/07 05:28:11;;;;;;;59.67;13.90;;;;;;;19.26;100.00;101666.81;21192987;27;20066;-75
2023/11/07 05:38:35;;;;;;;73.70;16.08;;;;;;;19.64;100.00;101687.13;21169229;27;20403;-75
2023/11/07 05:48:58;;;;;;;57.28;10.20;;;;;;;20.14;100.00;101695.69;21197922;28;20048;-76
2023/11/07 05:59:24;;;;;;;44.42;6.93;;;;;;;20.62;100.00;101704.19;21139575;28;20052;-76
2023/11/07 06:09:47;;;;;;;57.25;14.50;;;;;;;21.12;100.00;101706.31;21185334;28;20043;-76
2023/11/07 06:20:13;;;;;;;47.60;7.07;;;;;;;21.70;100.00;101722.53;21175640;28;20375;-76
2023/11/07 06:30:36;;;;;;;44.88;7.00;;;;;;;22.21;100.00;101723.53;21178250;28;20055;-76
2023/11/07 06:41:00;;;;;;;51.35;5.85;;;;;;;22.91;100.00;101718.69;21166947;27;20043;-77
2023/11/07 06:51:23;;;;;;;49.33;6.50;;;;;;;23.50;100.00;101711.19;21197689;27;20060;-76
2023/11/07 07:01:51;;;;;;;53.40;6.75;;;;;;;24.16;100.00;101712.25;21210272;27;20112;-76
2023/11/07 07:12:14;;;;;;;64.68;7.13;;;;;;;24.82;100.00;101705.13;21174243;27;20051;-77
2023/11/07 07:22:39;;;;;;;76.53;8.73;;;;;;;25.24;100.00;101712.03;21161854;27;20047;-77
2023/11/07 07:33:05;;;;;;;74.63;7.88;;;;;;;25.81;100.00;101713.88;21184861;27;20554;-76
2023/11/07 07:43:31;;;;;;;;;;;;;;;26.30;100.00;101709.59;21183689;27;20055;-77
2023/11/07 07:53:54;;;;;;;72.25;8.90;;;;;;;26.81;100.00;101704.13;21165177;27;20030;-76
2023/11/07 08:04:19;;;;;;;69.93;9.05;;;;;;;26.89;100.00;101702.94;21184636;27;20047;-76
2023/11/07 08:14:44;;;;;;;47.15;5.20;;;;;;;27.10;100.00;101705.81;21183488;27;20062;-76
2023/11/07 08:25:10;;;;;;;65.32;8.45;;;;;;;27.14;100.00;101712.88;21184319;27;20058;-73
2023/11/07 08:35:32;;;;;;;71.65;7.70;;;;;;;27.21;100.00;101715.28;21183321;27;20047;-73
2023/11/07 08:45:57;;;;;;;68.93;8.40;;;;;;;27.29;100.00;101725.84;21219226;27;20084;-73
2023/11/07 08:56:24;;;;;;;63.60;7.85;;;;;;;27.75;100.00;101717.72;21216125;27;21904;-73
2023/11/07 09:06:48;;;;;;;67.97;9.20;;;;;;;27.72;100.00;101701.53;21173314;27;20179;-73
2023/11/07 09:17:12;;;;;;;58.80;7.90;;;;;;;27.92;100.00;101688.97;21146282;27;20103;-72
2023/11/07 09:27:37;;;;;;;59.33;7.55;;;;;;;28.11;100.00;101685.41;21119220;27;20058;-73
2023/11/07 09:37:59;;;;;;;74.22;9.00;;;;;;;28.06;100.00;101679.28;21141008;27;20051;-73
2023/11/07 09:48:25;;;;;;;64.75;7.50;;;;;;;27.81;100.00;101656.84;21152234;28;20115;-73
2023/11/07 09:58:51;;;;;;;51.67;5.72;;;;;;;28.09;100.00;101645.72;21188695;28;20051;-73
2023/11/07 10:09:17;;;;;;;59.28;6.80;;;;;;;28.22;100.00;101637.94;21185141;28;20039;-72
2023/11/07 10:19:40;;;;;;;64.73;7.03;;;;;;;27.87;100.00;101626.72;21158280;27;20070;-73
2023/11/07 10:30:05;;;;;;;68.53;7.70;;;;;;;28.01;100.00;101615.28;21171053;27;20546;-73
2023/11/07 10:40:28;;;;;;;65.15;7.47;;;;;;;28.02;100.00;101600.75;21187752;27;20107;-73
2023/11/07 10:50:52;;;;;;;65.70;8.20;;;;;;;28.02;100.00;101600.75;21170235;27;20369;-73
2023/11/07 11:01:16;;;;;;;64.97;7.38;;;;;;;27.90;100.00;101594.00;21160092;27;20050;-73
2023/11/07 11:11:42;;;;;;;50.75;6.45;;;;;;;27.86;100.00;101583.34;21179587;27;20091;-73
2023/11/07 11:22:14;;;;;;;57.63;8.20;;;;;;;28.12;100.00;101567.69;21247150;27;20050;-73
2023/11/07 11:32:43;;;;;;;76.65;8.68;;;;;;;27.54;100.00;101571.16;21216391;27;20261;-74
2023/11/07 11:43:06;;;;;;;59.95;6.07;;;;;;;27.20;100.00;101561.66;21275016;27;20054;-73
2023/11/07 11:53:36;;;;;;;69.20;7.75;;;;;;;26.81;100.00;101563.22;21206143;27;20861;-73
2023/11/07 12:03:59;;;;;;;66.45;8.07;;;;;;;26.71;100.00;101559.97;21207008;27;20051;-73
2023/11/07 12:14:23;;;;;;;70.85;7.55;;;;;;;26.50;100.00;101560.78;21212601;27;20444;-74
2023/11/07 12:24:46;;;;;;;74.68;7.80;;;;;;;26.41;100.00;101564.72;21172535;27;20548;-74
2023/11/07 12:35:20;;;;;;;52.75;7.28;;;;;;;26.43;100.00;101567.38;21175792;27;20073;-74
2023/11/07 12:45:46;;;;;;;65.10;8.48;;;;;;;26.00;100.00;101559.88;21171405;27;20043;-73
2023/11/07 12:56:11;;;;;;;65.38;8.20;;;;;;;25.95;100.00;101561.88;21147143;27;20050;-73
2023/11/07 13:06:33;;;;;;;57.55;8.02;;;;;;;25.91;100.00;101568.34;21182595;27;20039;-73
2023/11/07 13:16:58;;;;;;;65.03;7.07;;;;;;;25.88;100.00;101568.44;21162373;27;20050;-74
2023/11/07 13:27:21;;;;;;;74.95;7.82;;;;;;;25.82;100.00;101569.53;21149090;27;20047;-74
2023/11/07 13:37:49;;;;;;;64.82;7.40;;;;;;;25.59;100.00;101566.75;21146419;27;20057;-73
2023/11/07 13:48:12;;;;;;;59.33;7.80;;;;;;;25.31;100.00;101559.50;21137034;27;20051;-73
2023/11/07 13:58:36;;;;;;;59.42;6.82;;;;;;;25.32;100.00;101547.75;21149417;27;20047;-73
2023/11/07 14:09:02;;;;;;;58.55;6.40;;;;;;;25.25;100.00;101562.41;21226131;27;20539;-73
2023/11/07 14:19:28;;;;;;;71.75;7.47;;;;;;;25.23;100.00;101564.28;21133843;28;20056;-73
2023/11/07 14:29:51;;;;;;;65.50;8.40;;;;;;;25.09;100.00;101565.63;21192332;27;20057;-73
2023/11/07 14:40:15;;;;;;;52.05;7.13;;;;;;;24.86;100.00;101564.53;21223704;27;20052;-73
2023/11/07 14:50:38;;;;;;;58.92;7.63;;;;;;;24.66;100.00;101572.34;21132038;28;20074;-72
2023/11/07 15:01:02;;;;;;;66.82;8.32;;;;;;;24.40;100.00;101569.50;21148843;27;20044;-73
2023/11/07 15:11:25;;;;;;;60.50;7.78;;;;;;;24.19;100.00;101576.41;21163385;27;20051;-73
2023/11/07 15:21:49;;;;;;;66.25;8.38;;;;;;;23.99;100.00;101578.72;21184652;27;20047;-73
2023/11/07 15:32:12;;;;;;;55.88;7.20;;;;;;;23.78;100.00;101572.06;21154687;27;20047;-72
2023/11/07 15:42:36;;;;;;;73.07;9.55;;;;;;;23.50;100.00;101589.88;21154780;27;20388;-74
2023/11/07 15:52:58;;;;;;;54.58;7.00;;;;;;;23.13;100.00;101595.19;21157686;27;20557;-73
2023/11/07 16:03:23;;;;;;;64.38;7.53;;;;;;;22.87;100.00;101615.53;21159533;27;20032;-73
2023/11/07 16:13:46;;;;;;;63.30;7.45;;;;;;;22.66;100.00;101624.00;21164111;27;20055;-73
2023/11/07 16:24:12;;;;;;;62.00;7.63;;;;;;;22.55;100.00;101635.00;21158750;27;20044;-74
2023/11/07 16:34:35;;;;;;;62.13;7.88;;;;;;;22.40;100.00;101643.38;21179505;27;20051;-73
2023/11/07 16:45:00;;;;;;;53.40;8.68;;;;;;;22.21;100.00;101650.91;21160752;27;20048;-73
2023/11/07 16:55:23;;;;;;;51.47;8.65;;;;;;;22.10;100.00;101663.66;21167536;27;20067;-74
2023/11/07 17:05:48;;;;;;;49.28;6.95;;;;;;;22.03;100.00;101664.69;21206849;27;20047;-73
2023/11/07 17:16:11;;;;;;;45.80;6.22;;;;;;;21.96;100.00;101662.13;21162228;27;20047;-74
2023/11/07 17:26:35;;;;;;;35.75;5.45;;;;;;;21.89;100.00;101658.59;21179375;27;20093;-74
2023/11/07 17:36:58;;;;;;;35.65;5.80;;;;;;;21.77;100.00;101673.16;21146466;27;20051;-74
2023/11/07 17:47:22;;;;;;;40.97;6.85;;;;;;;21.71;100.00;101675.03;21153009;27;20051;-74
2023/11/07 17:57:48;;;;;;;43.93;9.27;;;;;;;21.59;100.00;101669.84;21165256;28;20084;-74
2023/11/07 18:08:12;;;;;;;42.05;6.40;;;;;;;21.53;100.00;101681.56;21205194;27;20059;-75
2023/11/07 18:18:35;;;;;;;44.17;7.70;;;;;;;21.47;100.00;101670.91;21200615;27;20065;-74
2023/11/07 18:28:59;;;;;;;27.73;5.82;;;;;;;21.27;100.00;101662.25;21196445;27;20047;-74
2023/11/07 18:39:21;;;;;;;40.72;10.73;;;;;;;21.11;100.00;101668.72;21207873;27;20046;-74
2023/11/07 18:49:45;;;;;;;38.50;6.57;;;;;;;21.06;100.00;101682.22;21189321;27;20058;-73
2023/11/07 19:00:09;;;;;;;32.17;4.93;;;;;;;21.00;100.00;101674.25;21195300;27;20520;-73
2023/11/07 19:10:34;;;;;;;41.35;6.03;;;;;;;20.96;100.00;101680.53;21204877;27;20042;-74
2023/11/07 19:20:57;;;;;;;44.55;6.72;;;;;;;20.86;100.00;101685.16;21192123;27;20090;-75
2023/11/07 19:31:21;;;;;;;39.60;6.97;;;;;;;20.76;100.00;101685.25;21177915;27;20086;-75
2023/11/07 19:41:44;;;;;;;43.45;6.20;;;;;;;20.66;100.00;101681.78;21190867;27;20099;-75
2023/11/07 19:52:08;;;;;;;42.60;9.43;;;;;;;20.56;100.00;101690.84;21178027;27;20058;-75
2023/11/07 20:02:30;;;;;;;45.17;8.68;;;;;;;20.51;100.00;101690.88;21152054;27;20365;-75
2023/11/07 20:12:55;;;;;;;48.00;7.05;;;;;;;20.44;100.00;101683.81;21149471;27;20043;-74
2023/11/07 20:23:17;;;;;;;41.70;5.38;;;;;;;20.32;100.00;101689.28;21210211;27;20072;-74
2023/11/07 20:33:41;;;;;;;48.25;7.07;;;;;;;20.22;100.00;101682.19;21153656;27;20801;-75
2023/11/07 20:44:04;;;;;;;46.28;6.57;;;;;;;20.12;100.00;101680.50;21175627;27;20047;-74
2023/11/07 20:54:28;;;;;;;41.85;6.05;;;;;;;20.04;100.00;101695.78;21179151;27;20186;-75
2023/11/07 21:04:53;;;;;;;52.80;6.68;;;;;;;19.97;100.00;101686.00;21207399;27;20047;-75
2023/11/07 21:15:18;;;;;;;42.72;6.18;;;;;;;19.85;100.00;101687.88;21202322;27;20058;-76
2023/11/07 21:25:40;;;;;;;39.30;6.00;;;;;;;19.88;100.00;101686.97;21121116;28;20047;-74
2023/11/07 21:36:05;;;;;;;54.67;7.65;;;;;;;19.86;100.00;101688.78;21189064;27;20051;-73
2023/11/07 21:46:28;;;;;;;45.45;7.78;;;;;;;19.89;100.00;101686.94;21219190;27;20069;-74
2023/11/07 21:56:52;;;;;;;44.70;5.95;;;;;;;20.02;100.00;101689.56;21124874;28;20405;-75
2023/11/07 22:07:14;;;;;;;57.05;6.63;;;;;;;19.96;100.00;101685.09;21148577;28;20043;-75
2023/11/07 22:17:38;;;;;;;56.17;7.60;;;;;;;19.79;100.00;101673.63;21192517;27;20482;-74
2023/11/07 22:28:01;;;;;;;51.40;6.90;;;;;;;19.89;100.00;101672.66;21187878;27;20055;-74
2023/11/07 22:38:26;;;;;;;41.17;5.40;;;;;;;20.00;100.00;101670.78;21234158;27;20101;-75
2023/11/07 22:48:51;;;;;;;48.13;6.68;;;;;;;19.83;100.00;101657.50;21150886;28;20075;-75
2023/11/07 22:59:15;;;;;;;43.42;5.82;;;;;;;19.73;100.00;101661.19;21146680;27;20043;-73
2023/11/07 23:09:37;;;;;;;54.90;7.47;;;;;;;19.58;100.00;101661.28;21163571;27;20070;-74
2023/11/07 23:20:01;;;;;;;50.20;7.43;;;;;;;19.64;100.00;101658.56;21157806;27;20058;-74
2023/11/07 23:30:24;;;;;;;50.08;7.55;;;;;;;19.68;100.00;101673.72;21203353;27;20138;-74
2023/11/07 23:40:49;;;;;;;43.30;5.95;;;;;;;19.66;100.00;101667.47;21145511;27;20053;-75
2023/11/07 23:51:12;;;;;;;44.55;6.35;;;;;;;19.76;100.00;101669.19;21192258;27;20047;-75
